Avon, Iowa
Current Conditions -  °F | °C
As of 8:54 AM on Thursday 23 Oct 2014 (Local Time) from KDSM Reporting Station
Overcast Overcast  
Wind Chill: 13°   Ceiling: 2400
Heat Index: 13°   Visibility: 10mi
Dew Point: 11°   Wind: 7mph
Humidity: 89%   Direction: 200°SSW
Pressure: 30.05"   Gusts: NA
Location:  41.4707°N, 93.4797°W
Report Text: KDSM 231354Z 20006KT 10SM FEW009 BKN024 OVC055 13/11 A3005 RMK AO2 DZE1256B23E37RAB1256E14 SLP175 P0001 T01280111
Loading
Personal Weather Stations






























Interactive Weather Map
Tropical Storm Tracking
New forecast layout! Learn more

10-Day Weather Forecast

Advertisements
Track Severe Weather on mobile